createdAt,value
2022-10-31T00:00:06.610Z,8.77
2022-10-31T00:02:07.976Z,8.18
2022-10-31T00:04:09.396Z,8.02
2022-10-31T00:06:11.007Z,7.70
2022-10-31T00:08:12.334Z,8.18
2022-10-31T00:10:13.619Z,8.50
2022-10-31T00:12:15.018Z,8.40
2022-10-31T00:14:16.355Z,7.68
2022-10-31T00:16:24.680Z,8.32
2022-10-31T00:18:26.077Z,8.20
2022-10-31T00:20:27.384Z,8.15
2022-10-31T00:22:28.821Z,8.10
2022-10-31T00:24:30.144Z,8.05
2022-10-31T00:26:32.115Z,7.47
2022-10-31T00:28:34.647Z,7.18
2022-10-31T00:30:36.020Z,7.00
2022-10-31T00:32:37.391Z,6.18
2022-10-31T00:34:38.687Z,6.22
2022-10-31T00:36:40.018Z,6.93
2022-10-31T00:38:41.736Z,7.32
2022-10-31T00:40:43.053Z,6.13
2022-10-31T00:42:44.440Z,6.75
2022-10-31T00:44:45.780Z,5.75
2022-10-31T00:46:47.081Z,7.22
2022-10-31T00:48:48.445Z,6.68
2022-10-31T00:50:49.720Z,6.78
2022-10-31T00:52:51.023Z,7.93
2022-10-31T00:54:52.316Z,6.72
2022-10-31T00:56:53.639Z,6.85
2022-10-31T00:58:55.018Z,7.53
2022-10-31T01:00:56.750Z,7.03
2022-10-31T01:02:58.565Z,7.20
2022-10-31T01:05:00.154Z,7.70
2022-10-31T01:07:01.477Z,7.47
2022-10-31T01:09:02.806Z,6.68
2022-10-31T01:11:23.599Z,7.03
2022-10-31T01:15:26.175Z,7.10
2022-10-31T01:17:27.509Z,6.93
2022-10-31T01:19:28.856Z,7.18
2022-10-31T01:21:30.437Z,7.30
2022-10-31T01:23:31.917Z,7.30
2022-10-31T01:25:33.338Z,6.78
2022-10-31T01:27:34.843Z,6.70
2022-10-31T01:29:36.218Z,7.65
2022-10-31T01:31:38.815Z,6.93
2022-10-31T01:33:40.346Z,7.28
2022-10-31T01:35:41.825Z,7.15
2022-10-31T01:37:43.124Z,7.45
2022-10-31T01:39:44.541Z,7.32
2022-10-31T01:41:50.249Z,6.97
2022-10-31T01:44:04.107Z,7.03
2022-10-31T01:46:05.409Z,7.43
2022-10-31T01:48:12.080Z,7.13
2022-10-31T01:50:27.142Z,6.63
2022-10-31T01:52:31.691Z,7.18
2022-10-31T01:54:35.749Z,7.03
2022-10-31T01:56:40.702Z,7.32
2022-10-31T01:58:42.612Z,6.93
2022-10-31T02:00:46.117Z,7.32
2022-10-31T02:02:48.672Z,7.10
2022-10-31T02:04:50.126Z,7.75
2022-10-31T02:07:01.295Z,7.72
2022-10-31T02:09:05.064Z,7.63
2022-10-31T02:11:07.293Z,8.10
2022-10-31T02:13:09.180Z,8.57
2022-10-31T02:15:10.716Z,8.18
2022-10-31T02:17:12.065Z,8.00
2022-10-31T02:19:14.835Z,7.15
2022-10-31T02:21:19.118Z,7.40
2022-10-31T02:23:39.090Z,7.70
2022-10-31T02:25:40.430Z,7.77
2022-10-31T02:27:41.829Z,7.00
2022-10-31T02:29:45.707Z,7.55
2022-10-31T02:31:52.071Z,7.25
2022-10-31T02:33:56.633Z,7.88
2022-10-31T02:36:17.674Z,7.43
2022-10-31T02:38:39.504Z,7.45
2022-10-31T02:40:49.014Z,7.03
2022-10-31T02:42:56.732Z,7.80
2022-10-31T02:45:12.890Z,8.13
2022-10-31T02:47:17.916Z,8.52
2022-10-31T02:49:30.918Z,8.18
2022-10-31T02:51:32.272Z,8.27
2022-10-31T02:53:37.390Z,8.57
2022-10-31T02:55:38.682Z,8.73
2022-10-31T02:57:40.803Z,9.38
2022-10-31T02:59:45.874Z,8.70
2022-10-31T03:02:09.952Z,9.50
2022-10-31T03:04:17.563Z,8.48
2022-10-31T03:06:24.905Z,8.38
2022-10-31T03:08:51.463Z,7.88
2022-10-31T03:10:52.970Z,7.45
2022-10-31T03:13:10.532Z,7.28
2022-10-31T03:15:28.428Z,7.20
2022-10-31T03:17:43.319Z,7.28
2022-10-31T03:19:48.017Z,6.90
2022-10-31T03:21:56.595Z,7.45
2022-10-31T03:23:58.734Z,7.25
2022-10-31T03:26:01.765Z,6.65
2022-10-31T03:28:04.501Z,7.40
2022-10-31T03:30:08.572Z,7.15
2022-10-31T03:32:12.019Z,7.07
2022-10-31T03:34:13.622Z,7.28
2022-10-31T03:36:15.794Z,7.22
2022-10-31T03:38:17.567Z,7.25
2022-10-31T03:40:20.075Z,7.20
2022-10-31T03:42:26.016Z,6.72
2022-10-31T03:44:28.175Z,7.35
2022-10-31T03:46:29.569Z,7.50
2022-10-31T03:48:30.952Z,7.03
2022-10-31T03:50:45.474Z,7.40
2022-10-31T03:52:49.120Z,6.95
2022-10-31T03:54:55.589Z,7.18
2022-10-31T03:57:15.468Z,7.50
2022-10-31T03:59:21.474Z,7.10
2022-10-31T04:01:23.821Z,7.10
2022-10-31T04:03:27.110Z,7.45
2022-10-31T04:05:29.554Z,7.75
2022-10-31T04:07:33.148Z,7.22
2022-10-31T04:09:35.974Z,7.63
2022-10-31T04:11:39.113Z,7.50
2022-10-31T04:13:40.772Z,7.57
2022-10-31T04:15:42.672Z,7.35
2022-10-31T04:17:44.986Z,7.63
2022-10-31T04:19:46.381Z,7.78
2022-10-31T04:21:47.648Z,7.22
2022-10-31T04:23:48.932Z,7.50
2022-10-31T04:25:50.298Z,7.50
2022-10-31T04:27:51.757Z,7.07
2022-10-31T04:29:53.076Z,7.57
2022-10-31T04:31:54.374Z,7.88
2022-10-31T04:33:57.925Z,7.90
2022-10-31T04:35:59.223Z,7.97
2022-10-31T04:38:00.531Z,7.90
2022-10-31T04:40:01.880Z,8.18
2022-10-31T04:42:03.163Z,8.52
2022-10-31T04:44:04.483Z,8.23
2022-10-31T04:46:05.919Z,8.65
2022-10-31T04:48:07.210Z,8.68
2022-10-31T04:50:08.689Z,9.40
2022-10-31T04:52:10.038Z,9.35
2022-10-31T04:54:11.446Z,8.55
2022-10-31T04:56:12.722Z,8.73
2022-10-31T04:58:14.284Z,8.50
2022-10-31T05:00:17.377Z,8.25
2022-10-31T05:02:18.702Z,8.93
2022-10-31T05:04:20.082Z,8.85
2022-10-31T05:06:21.421Z,8.68
2022-10-31T05:08:22.881Z,8.70
2022-10-31T05:10:25.387Z,9.23
2022-10-31T05:12:26.793Z,9.15
2022-10-31T05:14:28.093Z,9.95
2022-10-31T05:16:29.401Z,10.20
2022-10-31T05:18:30.738Z,10.02
2022-10-31T05:20:32.323Z,8.65
2022-10-31T05:22:33.606Z,9.18
2022-10-31T05:24:35.082Z,8.85
2022-10-31T05:26:36.605Z,8.73
2022-10-31T05:28:38.043Z,8.85
2022-10-31T05:30:39.345Z,8.10
2022-10-31T05:32:41.533Z,8.80
2022-10-31T05:34:42.851Z,7.60
2022-10-31T05:36:44.148Z,7.10
2022-10-31T05:38:45.449Z,7.75
2022-10-31T05:40:46.815Z,6.28
2022-10-31T05:42:48.747Z,6.25
2022-10-31T05:44:50.080Z,7.13
2022-10-31T05:46:51.462Z,6.68
2022-10-31T05:48:52.792Z,7.30
2022-10-31T05:50:54.328Z,7.68
2022-10-31T05:53:00.509Z,7.72
2022-10-31T05:55:01.792Z,8.40
2022-10-31T05:57:03.142Z,8.10
2022-10-31T05:59:04.441Z,8.18
2022-10-31T06:01:06.484Z,8.88
2022-10-31T06:05:10.872Z,9.30
2022-10-31T06:07:12.422Z,9.15
2022-10-31T06:09:13.710Z,8.77
2022-10-31T06:11:15.012Z,9.10
2022-10-31T06:13:16.696Z,9.48
2022-10-31T06:15:23.415Z,8.25
2022-10-31T06:17:25.672Z,8.85
2022-10-31T06:19:26.986Z,9.30
2022-10-31T06:21:28.313Z,9.48
2022-10-31T06:23:29.804Z,8.73
2022-10-31T06:25:31.473Z,8.98
2022-10-31T06:27:32.803Z,8.98
2022-10-31T06:29:34.141Z,9.23
2022-10-31T06:31:36.466Z,10.82
2022-10-31T06:33:37.781Z,9.38
2022-10-31T06:35:39.147Z,9.82
2022-10-31T06:37:40.612Z,9.68
2022-10-31T06:39:41.882Z,10.88
2022-10-31T06:41:43.213Z,9.52
2022-10-31T06:43:46.829Z,10.05
2022-10-31T06:45:48.248Z,9.82
2022-10-31T06:48:15.417Z,9.82
2022-10-31T06:50:14.872Z,9.98
2022-10-31T06:52:16.285Z,9.55
2022-10-31T06:54:17.933Z,9.20
2022-10-31T06:56:19.213Z,9.55
2022-10-31T06:58:20.584Z,9.98
2022-10-31T07:00:21.927Z,9.77
2022-10-31T07:02:23.364Z,9.32
2022-10-31T07:04:25.355Z,8.85
2022-10-31T07:06:26.636Z,8.70
2022-10-31T07:08:28.122Z,8.95
2022-10-31T07:10:32.089Z,9.10
2022-10-31T07:12:35.701Z,8.68
2022-10-31T07:14:37.028Z,8.90
2022-10-31T07:16:44.236Z,7.60
2022-10-31T07:18:45.559Z,7.70
2022-10-31T07:20:46.904Z,7.93
2022-10-31T07:22:50.741Z,7.57
2022-10-31T07:24:52.424Z,7.90
2022-10-31T07:26:56.335Z,7.47
2022-10-31T07:28:57.692Z,7.95
2022-10-31T07:30:59.024Z,7.18
2022-10-31T07:33:00.397Z,7.40
2022-10-31T07:35:01.755Z,7.50
2022-10-31T07:37:03.211Z,8.02
2022-10-31T07:39:04.675Z,7.18
2022-10-31T07:41:06.143Z,7.07
2022-10-31T07:43:13.047Z,7.03
2022-10-31T07:45:16.863Z,7.35
2022-10-31T07:47:18.218Z,7.90
2022-10-31T07:49:19.520Z,7.65
2022-10-31T07:51:20.843Z,7.38
2022-10-31T07:53:22.137Z,7.80
2022-10-31T07:55:23.473Z,8.38
2022-10-31T07:57:25.335Z,7.60
2022-10-31T07:59:28.207Z,7.22
2022-10-31T08:01:29.509Z,7.45
2022-10-31T08:03:30.851Z,8.25
2022-10-31T08:05:32.634Z,7.53
2022-10-31T08:09:38.443Z,7.57
2022-10-31T08:11:39.965Z,6.90
2022-10-31T08:13:41.418Z,6.97
2022-10-31T08:15:43.108Z,8.30
2022-10-31T08:17:44.503Z,7.50
2022-10-31T08:19:45.875Z,6.43
2022-10-31T08:21:47.207Z,6.75
2022-10-31T08:23:48.561Z,7.13
2022-10-31T08:25:49.995Z,7.03
2022-10-31T08:27:52.639Z,7.32
2022-10-31T08:29:53.914Z,7.53
2022-10-31T08:31:55.283Z,7.57
2022-10-31T08:33:56.848Z,7.57
2022-10-31T08:36:00.935Z,6.68
2022-10-31T08:38:03.150Z,7.32
2022-10-31T08:40:05.118Z,7.35
2022-10-31T08:42:06.385Z,6.60
2022-10-31T08:44:07.868Z,6.95
2022-10-31T08:46:09.271Z,7.45
2022-10-31T08:48:12.022Z,7.97
2022-10-31T08:50:13.360Z,7.25
2022-10-31T08:52:15.900Z,7.50
2022-10-31T08:54:17.457Z,6.95
2022-10-31T08:56:18.788Z,7.70
2022-10-31T08:58:20.580Z,7.75
2022-10-31T09:00:21.849Z,6.88
2022-10-31T09:02:23.461Z,6.78
2022-10-31T09:04:24.813Z,6.90
2022-10-31T09:06:26.191Z,7.32
2022-10-31T09:08:27.681Z,6.68
2022-10-31T09:10:29.768Z,7.03
2022-10-31T09:12:31.060Z,6.05
2022-10-31T09:14:32.450Z,6.68
2022-10-31T09:16:33.753Z,7.63
2022-10-31T09:18:35.187Z,7.13
2022-10-31T09:20:37.597Z,8.80
2022-10-31T09:22:40.738Z,7.78
2022-10-31T09:24:42.090Z,7.90
2022-10-31T09:26:44.517Z,7.85
2022-10-31T09:28:45.870Z,8.57
2022-10-31T09:30:48.705Z,7.45
2022-10-31T09:32:55.684Z,7.43
2022-10-31T09:34:57.066Z,7.28
2022-10-31T09:36:58.574Z,7.80
2022-10-31T09:38:59.931Z,7.07
2022-10-31T09:41:19.596Z,6.15
2022-10-31T09:43:29.231Z,6.85
2022-10-31T09:45:34.874Z,7.10
2022-10-31T09:47:41.898Z,6.50
2022-10-31T09:50:03.162Z,6.78
2022-10-31T09:54:19.401Z,6.40
2022-10-31T09:56:22.176Z,6.40
2022-10-31T09:58:27.515Z,7.15
2022-10-31T10:00:28.900Z,7.38
2022-10-31T10:02:31.913Z,6.57
2022-10-31T10:04:36.155Z,7.03
2022-10-31T10:06:42.795Z,6.35
2022-10-31T10:08:44.167Z,7.53
2022-10-31T10:10:52.866Z,6.75
2022-10-31T10:12:57.368Z,7.35
2022-10-31T10:15:14.514Z,6.90
2022-10-31T10:17:18.785Z,6.72
2022-10-31T10:19:35.189Z,6.28
2022-10-31T10:21:39.200Z,6.72
2022-10-31T10:23:46.810Z,5.72
2022-10-31T10:25:50.506Z,5.55
2022-10-31T10:27:57.702Z,4.25
2022-10-31T10:30:12.011Z,5.68
2022-10-31T10:32:24.256Z,5.35
2022-10-31T10:34:29.626Z,6.88
2022-10-31T10:36:37.725Z,5.38
2022-10-31T10:38:46.261Z,5.80
2022-10-31T10:40:47.865Z,6.07
2022-10-31T10:43:23.472Z,5.95
2022-10-31T10:45:44.279Z,6.07
2022-10-31T10:49:50.941Z,7.00
2022-10-31T10:54:55.339Z,5.85
2022-10-31T10:57:12.622Z,6.65
2022-10-31T10:59:17.256Z,6.47
2022-10-31T11:01:18.599Z,5.63
2022-10-31T11:03:20.521Z,5.53
2022-10-31T11:05:27.268Z,5.53
2022-10-31T11:07:38.601Z,5.78
2022-10-31T11:09:39.894Z,6.53
2022-10-31T11:11:41.287Z,6.28
2022-10-31T11:13:43.332Z,7.40
2022-10-31T11:16:10.910Z,6.60
2022-10-31T11:18:20.903Z,7.03
2022-10-31T11:20:32.259Z,7.22
2022-10-31T11:22:33.703Z,6.28
2022-10-31T11:24:38.835Z,6.32
2022-10-31T11:26:41.377Z,5.93
2022-10-31T11:28:42.909Z,6.80
2022-10-31T11:31:07.573Z,5.90
2022-10-31T11:33:17.178Z,6.35
2022-10-31T11:35:19.543Z,6.25
2022-10-31T11:37:27.942Z,5.68
2022-10-31T11:39:29.549Z,5.65
2022-10-31T11:41:35.125Z,5.93
2022-10-31T11:43:36.983Z,5.57
2022-10-31T11:45:38.282Z,5.80
2022-10-31T11:47:42.404Z,5.05
2022-10-31T11:49:44.639Z,4.82
2022-10-31T11:51:49.114Z,5.72
2022-10-31T11:53:58.220Z,5.68
2022-10-31T11:56:06.334Z,4.97
2022-10-31T11:58:24.066Z,5.43
2022-10-31T12:00:37.219Z,6.45
2022-10-31T12:02:38.865Z,6.60
2022-10-31T12:04:42.673Z,5.82
2022-10-31T12:06:47.009Z,7.55
2022-10-31T12:08:48.345Z,6.32
2022-10-31T12:10:52.716Z,6.20
2022-10-31T12:13:26.009Z,5.82
2022-10-31T12:15:31.989Z,6.38
2022-10-31T12:17:51.908Z,6.10
2022-10-31T12:20:01.741Z,5.55
2022-10-31T12:22:10.413Z,5.97
2022-10-31T12:24:23.562Z,5.60
2022-10-31T12:26:27.757Z,6.55
2022-10-31T12:28:44.923Z,6.70
2022-10-31T12:31:00.988Z,5.75
2022-10-31T12:33:02.647Z,5.75
2022-10-31T12:35:11.113Z,4.65
2022-10-31T12:37:30.486Z,4.88
2022-10-31T12:39:50.520Z,5.35
2022-10-31T12:42:11.025Z,5.30
2022-10-31T12:44:28.618Z,5.68
2022-10-31T12:46:54.645Z,5.63
2022-10-31T12:48:58.553Z,5.90
2022-10-31T12:51:35.311Z,5.35
2022-10-31T12:54:03.128Z,5.00
2022-10-31T12:56:07.284Z,5.35
2022-10-31T12:58:11.690Z,5.47
2022-10-31T13:00:16.793Z,4.72
2022-10-31T13:02:27.818Z,4.60
2022-10-31T13:04:32.055Z,5.05
2022-10-31T13:06:39.508Z,4.90
2022-10-31T13:08:46.383Z,4.90
2022-10-31T13:10:49.687Z,5.13
2022-10-31T13:12:53.722Z,5.43
2022-10-31T13:14:57.956Z,5.43
2022-10-31T13:17:00.908Z,5.10
2022-10-31T13:19:04.991Z,5.63
2022-10-31T13:21:10.367Z,6.38
2022-10-31T13:23:36.584Z,6.50
2022-10-31T13:25:41.927Z,7.47
2022-10-31T13:27:49.369Z,7.35
2022-10-31T13:29:53.520Z,6.90
2022-10-31T13:31:55.001Z,6.57
2022-10-31T13:34:00.853Z,5.80
2022-10-31T13:36:20.922Z,5.35
2022-10-31T13:38:40.927Z,5.78
2022-10-31T13:41:05.477Z,5.68
2022-10-31T13:43:29.632Z,5.53
2022-10-31T13:45:30.961Z,6.47
2022-10-31T13:47:32.253Z,5.80
2022-10-31T13:49:33.622Z,5.57
2022-10-31T13:51:36.245Z,6.13
2022-10-31T13:53:37.562Z,6.00
2022-10-31T13:55:41.181Z,5.28
2022-10-31T13:57:45.470Z,5.18
2022-10-31T13:59:49.318Z,4.97
2022-10-31T14:01:52.412Z,4.03
2022-10-31T14:04:10.979Z,3.85
2022-10-31T14:06:16.068Z,4.07
2022-10-31T14:08:19.992Z,4.00
2022-10-31T14:10:33.327Z,4.55
2022-10-31T14:12:42.776Z,3.72
2022-10-31T14:14:46.998Z,3.72
2022-10-31T14:16:55.736Z,3.90
2022-10-31T14:19:06.566Z,4.47
2022-10-31T14:23:27.949Z,4.03
2022-10-31T14:25:31.580Z,3.97
2022-10-31T14:27:43.815Z,4.10
2022-10-31T14:29:50.168Z,4.10
2022-10-31T14:31:56.369Z,3.85
2022-10-31T14:33:57.761Z,4.07
2022-10-31T14:36:07.892Z,3.70
2022-10-31T14:38:31.395Z,3.75
2022-10-31T14:40:51.577Z,3.97
2022-10-31T14:42:56.854Z,3.72
2022-10-31T14:45:00.830Z,3.80
2022-10-31T14:47:05.069Z,4.03
2022-10-31T14:49:24.970Z,4.18
2022-10-31T14:51:31.084Z,4.27
2022-10-31T14:53:37.041Z,4.50
2022-10-31T14:55:40.901Z,4.05
2022-10-31T14:57:46.054Z,3.92
2022-10-31T14:59:50.492Z,3.22
2022-10-31T15:01:57.351Z,4.03
2022-10-31T15:04:22.246Z,4.13
2022-10-31T15:06:23.752Z,4.47
2022-10-31T15:08:30.873Z,3.78
2022-10-31T15:10:34.269Z,4.13
2022-10-31T15:12:38.546Z,4.10
2022-10-31T15:14:41.010Z,4.20
2022-10-31T15:16:43.510Z,4.45
2022-10-31T15:18:55.690Z,3.80
2022-10-31T15:20:57.692Z,3.80
2022-10-31T15:22:59.458Z,4.03
2022-10-31T15:25:00.927Z,4.07
2022-10-31T15:27:05.203Z,3.70
2022-10-31T15:29:12.112Z,3.65
2022-10-31T15:31:16.003Z,3.88
2022-10-31T15:33:21.698Z,3.78
2022-10-31T15:35:32.023Z,4.80
2022-10-31T15:37:33.371Z,5.65
2022-10-31T15:39:34.798Z,4.78
2022-10-31T15:41:39.750Z,5.93
2022-10-31T15:43:41.327Z,5.78
2022-10-31T15:45:43.336Z,5.43
2022-10-31T15:48:05.039Z,5.22
2022-10-31T15:50:19.085Z,5.45
2022-10-31T15:52:26.951Z,4.85
2022-10-31T15:54:29.160Z,4.50
2022-10-31T15:56:31.827Z,4.60
2022-10-31T15:58:34.185Z,4.43
2022-10-31T16:00:36.211Z,5.10
2022-10-31T16:02:37.587Z,6.15
2022-10-31T16:10:29.986Z,5.10
2022-10-31T16:12:45.233Z,4.90
2022-10-31T16:14:47.725Z,5.25
2022-10-31T16:16:50.826Z,5.13
2022-10-31T16:18:55.706Z,4.75
2022-10-31T16:20:57.659Z,4.97
2022-10-31T16:22:59.909Z,5.15
2022-10-31T16:25:10.603Z,5.45
2022-10-31T16:27:33.161Z,5.45
2022-10-31T16:29:40.777Z,5.00
2022-10-31T16:31:42.101Z,4.80
2022-10-31T16:33:44.266Z,4.18
2022-10-31T16:35:45.574Z,5.22
2022-10-31T16:37:46.998Z,4.50
2022-10-31T16:39:48.461Z,4.18
2022-10-31T16:41:51.508Z,5.15
2022-10-31T16:43:53.192Z,4.53
2022-10-31T16:45:54.698Z,3.83
2022-10-31T16:48:02.744Z,3.90
2022-10-31T16:50:06.636Z,4.88
2022-10-31T16:52:08.146Z,4.80
2022-10-31T16:54:11.491Z,4.53
2022-10-31T16:56:17.453Z,5.80
2022-10-31T16:58:22.525Z,4.95
2022-10-31T17:00:25.399Z,6.82
2022-10-31T17:02:26.892Z,5.95
2022-10-31T17:04:28.249Z,5.60
2022-10-31T17:06:29.604Z,5.43
2022-10-31T17:08:31.127Z,6.20
2022-10-31T17:10:32.753Z,5.20
2022-10-31T17:12:34.430Z,5.28
2022-10-31T17:14:36.724Z,6.57
2022-10-31T17:16:38.159Z,6.20
2022-10-31T17:18:39.465Z,6.13
2022-10-31T17:20:40.902Z,6.15
2022-10-31T17:22:42.197Z,7.10
2022-10-31T17:24:43.510Z,6.75
2022-10-31T17:26:45.050Z,6.47
2022-10-31T17:28:46.444Z,6.40
2022-10-31T17:30:47.943Z,6.35
2022-10-31T17:32:49.976Z,6.85
2022-10-31T17:34:51.470Z,7.10
2022-10-31T17:36:55.755Z,7.07
2022-10-31T17:38:57.365Z,6.85
2022-10-31T17:40:58.710Z,6.50
2022-10-31T17:43:00.305Z,6.22
2022-10-31T17:45:02.044Z,5.85
2022-10-31T17:47:03.361Z,6.43
2022-10-31T17:49:09.106Z,6.43
2022-10-31T17:51:10.576Z,6.75
2022-10-31T17:53:14.278Z,5.90
2022-10-31T17:55:16.240Z,6.40
2022-10-31T17:57:17.929Z,7.35
2022-10-31T17:59:19.257Z,6.38
2022-10-31T18:01:20.864Z,5.97
2022-10-31T18:03:22.448Z,7.13
2022-10-31T18:05:23.797Z,7.85
2022-10-31T18:07:25.224Z,9.00
2022-10-31T18:09:26.545Z,8.25
2022-10-31T18:11:27.929Z,7.97
2022-10-31T18:13:29.425Z,6.82
2022-10-31T18:15:30.714Z,6.68
2022-10-31T18:17:36.976Z,7.15
2022-10-31T18:19:40.841Z,8.55
2022-10-31T18:21:42.441Z,12.40
2022-10-31T18:23:44.141Z,10.85
2022-10-31T18:25:45.534Z,9.98
2022-10-31T18:27:46.867Z,8.02
2022-10-31T18:29:48.146Z,7.22
2022-10-31T18:31:51.302Z,7.50
2022-10-31T18:33:53.525Z,6.85
2022-10-31T18:35:54.853Z,7.32
2022-10-31T18:37:58.059Z,7.65
2022-10-31T18:40:02.269Z,7.95
2022-10-31T18:42:03.704Z,7.28
2022-10-31T18:44:08.559Z,8.27
2022-10-31T18:46:13.961Z,8.70
2022-10-31T18:48:15.998Z,8.50
2022-10-31T18:50:17.493Z,8.50
2022-10-31T18:52:18.832Z,7.95
2022-10-31T18:54:20.334Z,8.80
2022-10-31T18:56:22.142Z,9.18
2022-10-31T18:58:23.453Z,8.63
2022-10-31T19:00:24.892Z,7.88
2022-10-31T19:02:26.619Z,9.70
2022-10-31T19:04:27.967Z,8.90
2022-10-31T19:06:30.794Z,16.88
2022-10-31T19:08:32.808Z,9.45
2022-10-31T19:10:35.095Z,10.07
2022-10-31T19:12:36.431Z,15.63
2022-10-31T19:14:37.760Z,24.00
2022-10-31T19:16:39.103Z,11.00
2022-10-31T19:18:41.216Z,7.90
2022-10-31T19:20:42.753Z,9.63
2022-10-31T19:22:44.113Z,10.27
2022-10-31T19:24:45.415Z,8.30
2022-10-31T19:26:50.574Z,9.75
2022-10-31T19:28:52.190Z,8.77
2022-10-31T19:30:54.412Z,13.27
2022-10-31T19:32:55.910Z,11.07
2022-10-31T19:34:57.454Z,8.88
2022-10-31T19:36:58.798Z,9.20
2022-10-31T19:39:00.149Z,8.90
2022-10-31T19:41:02.812Z,8.20
2022-10-31T19:43:04.293Z,20.98
2022-10-31T19:45:05.850Z,23.50
2022-10-31T19:47:07.169Z,10.98
2022-10-31T19:49:09.379Z,10.02
2022-10-31T19:51:12.104Z,13.65
2022-10-31T19:53:13.490Z,15.13
2022-10-31T19:55:14.980Z,9.82
2022-10-31T19:57:16.294Z,9.32
2022-10-31T19:59:17.688Z,9.63
2022-10-31T20:01:21.306Z,9.32
2022-10-31T20:03:25.512Z,10.00
2022-10-31T20:05:26.943Z,9.60
2022-10-31T20:07:28.256Z,9.07
2022-10-31T20:09:29.568Z,9.15
2022-10-31T20:11:31.121Z,9.18
2022-10-31T20:13:33.990Z,8.15
2022-10-31T20:15:35.307Z,8.52
2022-10-31T20:17:36.558Z,9.13
2022-10-31T20:19:38.103Z,9.07
2022-10-31T20:21:40.188Z,9.07
2022-10-31T20:23:41.738Z,21.67
2022-10-31T20:25:49.415Z,14.73
2022-10-31T20:27:50.748Z,9.85
2022-10-31T20:29:52.054Z,9.95
2022-10-31T20:31:53.337Z,9.93
2022-10-31T20:33:55.691Z,9.82
2022-10-31T20:35:57.048Z,10.20
2022-10-31T20:37:58.611Z,9.40
2022-10-31T20:40:00.054Z,9.55
2022-10-31T20:42:01.355Z,7.90
2022-10-31T20:44:06.431Z,8.13
2022-10-31T20:46:11.157Z,8.70
2022-10-31T20:48:12.449Z,10.10
2022-10-31T20:50:13.834Z,9.00
2022-10-31T20:52:15.212Z,9.85
2022-10-31T20:54:18.574Z,9.02
2022-10-31T20:56:21.449Z,8.15
2022-10-31T20:58:22.834Z,10.00
2022-10-31T21:00:24.245Z,12.32
2022-10-31T21:02:25.716Z,9.65
2022-10-31T21:04:27.463Z,9.55
2022-10-31T21:06:29.130Z,8.57
2022-10-31T21:08:31.111Z,10.30
2022-10-31T21:10:32.563Z,12.60
2022-10-31T21:12:33.995Z,10.05
2022-10-31T21:14:36.962Z,9.30
2022-10-31T21:16:38.963Z,10.80
2022-10-31T21:18:40.992Z,10.52
2022-10-31T21:20:43.881Z,10.15
2022-10-31T21:22:45.241Z,10.32
2022-10-31T21:24:46.606Z,9.18
2022-10-31T21:26:49.509Z,10.38
2022-10-31T21:28:52.838Z,10.27
2022-10-31T21:30:54.170Z,10.25
2022-10-31T21:32:55.514Z,10.45
2022-10-31T21:34:56.847Z,9.85
2022-10-31T21:36:58.225Z,10.65
2022-10-31T21:38:59.571Z,10.10
2022-10-31T21:41:01.783Z,9.68
2022-10-31T21:43:03.527Z,10.23
2022-10-31T21:45:05.277Z,9.75
2022-10-31T21:47:06.639Z,10.13
2022-10-31T21:49:10.308Z,10.57
2022-10-31T21:51:16.175Z,9.75
2022-10-31T21:53:39.130Z,10.40
2022-10-31T21:55:40.432Z,10.70
2022-10-31T21:57:41.754Z,9.50
2022-10-31T21:59:48.750Z,9.98
2022-10-31T22:01:50.675Z,9.63
2022-10-31T22:03:55.325Z,10.48
2022-10-31T22:06:01.346Z,10.30
2022-10-31T22:08:02.995Z,10.15
2022-10-31T22:10:04.716Z,9.82
2022-10-31T22:12:08.933Z,10.15
2022-10-31T22:14:14.134Z,9.40
2022-10-31T22:16:16.463Z,9.43
2022-10-31T22:18:17.830Z,10.13
2022-10-31T22:20:21.364Z,10.40
2022-10-31T22:22:22.654Z,10.73
2022-10-31T22:24:24.101Z,10.30
2022-10-31T22:26:26.050Z,11.27
2022-10-31T22:28:29.415Z,10.50
2022-10-31T22:30:30.698Z,9.85
2022-10-31T22:32:32.008Z,9.70
2022-10-31T22:34:33.419Z,9.57
2022-10-31T22:36:35.036Z,8.20
2022-10-31T22:38:40.302Z,8.02
2022-10-31T22:40:41.669Z,8.93
2022-10-31T22:42:42.973Z,8.82
2022-10-31T22:44:44.246Z,9.13
2022-10-31T22:46:45.616Z,8.98
2022-10-31T22:48:48.016Z,8.52
2022-10-31T22:50:49.297Z,8.75
2022-10-31T22:52:50.580Z,8.02
2022-10-31T22:54:54.362Z,8.88
2022-10-31T22:56:58.228Z,8.93
2022-10-31T22:59:00.244Z,8.00
2022-10-31T23:01:06.345Z,9.75
2022-10-31T23:03:07.815Z,9.50
2022-10-31T23:05:09.233Z,8.57
2022-10-31T23:07:14.391Z,9.77
2022-10-31T23:09:16.971Z,10.15
2022-10-31T23:11:24.106Z,8.65
2022-10-31T23:13:43.988Z,9.80
2022-10-31T23:15:45.402Z,9.88
2022-10-31T23:17:46.735Z,9.70
2022-10-31T23:19:49.209Z,10.10
2022-10-31T23:21:56.569Z,10.35
2022-10-31T23:23:59.061Z,9.85
2022-10-31T23:26:19.377Z,9.00
2022-10-31T23:28:20.677Z,9.82
2022-10-31T23:30:22.118Z,9.38
2022-10-31T23:32:27.481Z,8.20
2022-10-31T23:34:28.826Z,9.90
2022-10-31T23:36:30.175Z,10.55
2022-10-31T23:38:31.641Z,9.43
2022-10-31T23:40:32.912Z,9.98
2022-10-31T23:42:34.455Z,10.13
2022-10-31T23:44:35.938Z,10.75
2022-10-31T23:46:37.246Z,9.10
2022-10-31T23:48:38.527Z,10.07
2022-10-31T23:50:39.975Z,10.48
2022-10-31T23:52:41.271Z,9.98
2022-10-31T23:54:42.906Z,9.70
2022-10-31T23:56:44.434Z,9.95
2022-10-31T23:58:45.791Z,11.00
